Time;durP1;ratioP1;P1;durP2;ratioP2;P2;SDS_P1;SDS_P2;PMS_P1;PMS_P2;Temp;Humidity;BMP_temperature;BMP_pressure;BME280_temperature;BME280_humidity;BME280_pressure;Samples;Min_cycle;Max_cycle;Signal;HPM_P1;HPM_P2
2022/07/21 00:00:40;;;;;;;14.53;13.03;;;;;;;25.49;62.69;97740.41;5105212;28;20173;-70
2022/07/21 00:03:05;;;;;;;15.93;12.53;;;;;;;25.46;62.84;97736.31;5102501;28;20197;-71
2022/07/21 00:05:30;;;;;;;16.07;13.13;;;;;;;25.41;62.79;97745.06;5106598;28;20246;-69
2022/07/21 00:07:56;;;;;;;13.87;12.40;;;;;;;25.47;63.03;97737.94;5095439;28;20178;-70
2022/07/21 00:10:24;;;;;;;14.50;12.57;;;;;;;25.47;62.55;97732.56;5087295;27;20299;-71
2022/07/21 00:12:50;;;;;;;16.30;14.77;;;;;;;25.42;63.14;97735.16;5106866;27;20182;-69
2022/07/21 00:15:17;;;;;;;13.73;12.20;;;;;;;25.47;63.20;97726.41;5111894;27;20419;-69
2022/07/21 00:17:43;;;;;;;21.33;18.93;;;;;;;25.49;63.29;97746.56;5100689;27;20944;-70
2022/07/21 00:20:09;;;;;;;14.87;13.47;;;;;;;25.51;63.43;97744.47;5107261;28;20503;-70
2022/07/21 00:22:35;;;;;;;14.23;12.90;;;;;;;25.53;63.23;97730.81;5102742;27;20307;-69
2022/07/21 00:25:01;;;;;;;18.47;15.17;;;;;;;25.49;62.64;97749.25;5106987;27;20524;-69
2022/07/21 00:27:26;;;;;;;14.93;13.07;;;;;;;25.52;62.25;97764.88;5113072;27;20418;-69
2022/07/21 00:29:52;;;;;;;16.17;14.43;;;;;;;25.34;62.27;97770.34;5093384;28;20174;-68
2022/07/21 00:32:17;;;;;;;15.33;13.73;;;;;;;25.39;62.67;97765.09;5099749;28;20196;-69
2022/07/21 00:34:46;;;;;;;13.20;11.90;;;;;;;25.36;62.32;97761.03;5108311;28;20705;-69
2022/07/21 00:37:11;;;;;;;13.40;12.17;;;;;;;25.36;62.24;97760.19;5107566;28;20217;-69
2022/07/21 00:39:37;;;;;;;21.87;16.43;;;;;;;25.34;62.52;97762.31;5088468;28;20935;-69
2022/07/21 00:42:03;;;;;;;16.93;13.63;;;;;;;25.32;62.67;97761.75;5100615;27;20239;-69
2022/07/21 00:44:29;;;;;;;15.13;13.63;;;;;;;25.34;62.96;97748.88;5086880;28;20671;-69
2022/07/21 00:46:54;;;;;;;21.00;13.77;;;;;;;25.29;62.73;97744.22;5106433;27;20517;-70
2022/07/21 00:49:20;;;;;;;13.57;12.37;;;;;;;25.39;63.07;97735.59;5106651;28;20182;-70
2022/07/21 00:51:47;;;;;;;18.30;13.40;;;;;;;25.41;62.64;97733.53;5104824;28;20326;-69
2022/07/21 00:54:13;;;;;;;13.20;11.93;;;;;;;25.45;62.53;97745.44;5100393;28;20779;-69
2022/07/21 00:56:38;;;;;;;12.57;11.37;;;;;;;25.44;62.31;97757.22;5081783;28;20490;-70
2022/07/21 00:59:04;;;;;;;14.93;12.87;;;;;;;25.26;62.08;97761.63;5084867;28;20522;-72
2022/07/21 01:01:29;;;;;;;12.40;11.10;;;;;;;25.24;62.04;97768.28;5100132;27;20534;-69
2022/07/21 01:03:55;;;;;;;18.60;13.33;;;;;;;25.25;62.33;97762.66;5103053;28;20197;-70
2022/07/21 01:06:21;;;;;;;14.83;13.33;;;;;;;25.29;62.69;97771.88;5111202;28;20181;-69
2022/07/21 01:08:46;;;;;;;15.80;14.30;;;;;;;25.29;62.43;97763.84;5093383;28;20181;-69
2022/07/21 01:11:12;;;;;;;12.13;10.77;;;;;;;25.34;62.63;97764.97;5077443;27;20191;-70
2022/07/21 01:13:41;;;;;;;17.33;12.97;;;;;;;25.32;62.75;97767.91;5105651;27;20192;-69
2022/07/21 01:16:08;;;;;;;16.80;12.63;;;;;;;25.32;62.42;97769.78;5089289;28;20205;-69
2022/07/21 01:18:33;;;;;;;14.83;13.00;;;;;;;25.28;62.36;97770.25;5086474;28;20423;-69
2022/07/21 01:21:02;;;;;;;14.30;12.80;;;;;;;25.28;62.32;97759.53;5101748;28;20431;-68
2022/07/21 01:23:28;;;;;;;12.73;11.53;;;;;;;25.29;61.71;97760.31;5112816;27;20192;-71
2022/07/21 01:25:54;;;;;;;12.90;11.60;;;;;;;25.31;61.97;97760.91;5108675;27;20445;-69
2022/07/21 01:28:19;;;;;;;14.73;11.10;;;;;;;25.32;62.01;97756.38;5106106;28;20187;-69
2022/07/21 01:30:44;;;;;;;12.50;11.30;;;;;;;25.21;61.20;97766.84;5108448;27;20733;-70
2022/07/21 01:33:10;;;;;;;12.90;11.07;;;;;;;25.21;60.57;97772.22;5093185;28;20270;-70
2022/07/21 01:35:35;;;;;;;11.20;10.10;;;;;;;25.13;61.33;97761.84;5111920;27;20177;-69
2022/07/21 01:38:03;;;;;;;11.87;10.77;;;;;;;25.11;61.74;97763.94;5094889;28;20260;-69
2022/07/21 01:43:12;;;;;;;11.10;10.00;;;;;;;24.97;61.06;97766.84;5103301;27;20442;-70
2022/07/21 01:45:40;;;;;;;9.70;8.90;;;;;;;24.92;60.88;97785.50;5102238;28;20430;-69
2022/07/21 01:48:05;;;;;;;12.33;11.23;;;;;;;24.88;61.58;97788.88;5103652;28;20276;-71
2022/07/21 01:50:31;;;;;;;9.73;8.83;;;;;;;24.72;60.91;97795.72;5100225;28;21196;-70
2022/07/21 01:52:57;;;;;;;9.63;8.67;;;;;;;24.72;61.12;97795.72;5106864;28;20226;-70
2022/07/21 01:55:24;;;;;;;10.10;9.10;;;;;;;24.78;61.16;97811.69;5099426;28;20182;-69
2022/07/21 01:57:50;;;;;;;9.70;8.60;;;;;;;24.83;61.31;97819.03;5103956;28;20467;-70
2022/07/21 02:00:16;;;;;;;11.80;8.83;;;;;;;24.85;60.93;97825.00;5099202;28;20419;-70
2022/07/21 02:02:42;;;;;;;10.33;8.30;;;;;;;24.92;61.07;97817.69;5109958;28;20451;-70
2022/07/21 02:05:08;;;;;;;9.30;8.40;;;;;;;24.91;61.65;97820.56;5117537;28;20490;-70
2022/07/21 02:07:33;;;;;;;13.57;9.20;;;;;;;24.89;61.46;97809.28;5108093;28;20910;-69
2022/07/21 02:09:59;;;;;;;10.60;9.13;;;;;;;24.87;62.07;97806.81;5097531;28;20327;-70
2022/07/21 02:12:25;;;;;;;10.60;8.93;;;;;;;24.81;62.57;97815.78;5112746;28;20551;-71
2022/07/21 02:14:50;;;;;;;11.97;9.50;;;;;;;24.80;62.85;97808.78;5109380;28;20220;-69
2022/07/21 02:17:16;;;;;;;11.47;8.80;;;;;;;24.76;62.79;97800.38;5100422;28;20613;-70
2022/07/21 02:19:41;;;;;;;13.13;9.50;;;;;;;24.76;62.49;97808.41;5111501;28;20544;-71
2022/07/21 02:22:07;;;;;;;9.80;8.90;;;;;;;24.49;63.09;97807.97;5101737;28;20674;-70
2022/07/21 02:24:34;;;;;;;10.73;9.03;;;;;;;24.37;63.09;97811.41;5107946;28;20193;-69
2022/07/21 02:27:00;;;;;;;11.23;9.10;;;;;;;24.44;62.38;97810.53;5092962;28;20181;-71
2022/07/21 02:29:25;;;;;;;13.23;9.10;;;;;;;24.38;62.68;97809.56;5109472;28;20426;-70
2022/07/21 02:31:51;;;;;;;11.30;9.73;;;;;;;24.42;63.06;97807.25;5107788;28;20302;-69
2022/07/21 02:34:16;;;;;;;10.00;9.00;;;;;;;24.36;63.07;97804.44;5107503;28;20205;-70
2022/07/21 02:36:42;;;;;;;9.80;8.80;;;;;;;24.27;63.59;97789.72;5101891;28;20201;-70
2022/07/21 02:39:07;;;;;;;12.47;9.23;;;;;;;24.25;63.92;97791.00;5106528;28;20181;-69
2022/07/21 02:41:33;;;;;;;10.00;9.00;;;;;;;24.11;64.46;97804.56;5105287;28;20245;-71
2022/07/21 02:43:58;;;;;;;13.40;8.67;;;;;;;24.22;64.15;97793.09;5101937;28;20215;-70
2022/07/21 02:46:23;;;;;;;9.73;8.73;;;;;;;24.29;63.89;97803.72;5110467;28;20221;-72
2022/07/21 02:48:49;;;;;;;8.90;8.00;;;;;;;24.22;62.80;97808.31;5102714;28;20193;-70
2022/07/21 02:51:14;;;;;;;10.20;8.13;;;;;;;24.10;63.08;97815.47;5108357;28;20667;-70
2022/07/21 02:53:40;;;;;;;11.43;7.83;;;;;;;24.16;63.45;97811.91;5103607;28;20205;-70
2022/07/21 02:56:05;;;;;;;8.87;7.97;;;;;;;24.22;63.77;97806.47;5106858;28;20193;-71
2022/07/21 02:58:31;;;;;;;10.80;8.33;;;;;;;24.19;63.74;97803.44;5106451;28;20184;-69
2022/07/21 03:00:59;;;;;;;15.77;8.67;;;;;;;24.24;64.21;97806.25;5106360;28;20188;-69
2022/07/21 03:03:27;;;;;;;10.23;8.50;;;;;;;24.27;64.12;97811.16;5106918;28;20266;-69
2022/07/21 03:05:53;;;;;;;9.00;7.87;;;;;;;24.19;63.58;97814.94;5100337;28;20450;-69
2022/07/21 03:08:19;;;;;;;9.57;8.57;;;;;;;24.30;63.68;97804.50;5105438;28;20426;-71
2022/07/21 03:10:45;;;;;;;8.60;7.67;;;;;;;24.35;63.16;97796.63;5087537;28;20601;-70
2022/07/21 03:13:10;;;;;;;9.90;8.27;;;;;;;24.35;63.44;97792.06;5111888;28;20529;-70
2022/07/21 03:15:37;;;;;;;9.03;8.23;;;;;;;24.35;63.00;97816.19;5105700;28;20181;-70
2022/07/21 03:18:02;;;;;;;8.17;7.33;;;;;;;24.40;63.02;97804.78;5095700;28;20205;-71
2022/07/21 03:20:30;;;;;;;10.00;8.23;;;;;;;24.46;63.12;97806.56;5108139;28;20522;-70
2022/07/21 03:22:56;;;;;;;9.73;8.77;;;;;;;24.39;62.94;97811.19;5096376;28;20185;-70
2022/07/21 03:25:22;;;;;;;11.27;8.13;;;;;;;24.11;63.15;97817.13;5107447;28;20423;-70
2022/07/21 03:27:48;;;;;;;8.30;7.50;;;;;;;24.09;63.69;97820.03;5105931;28;20263;-69
2022/07/21 03:30:15;;;;;;;9.30;8.00;;;;;;;24.05;64.04;97824.19;5111850;28;20268;-70
2022/07/21 03:32:40;;;;;;;9.87;7.83;;;;;;;24.10;63.87;97815.47;5087494;28;20454;-71
2022/07/21 03:35:08;;;;;;;10.70;8.50;;;;;;;24.14;63.99;97822.03;5104056;28;20452;-72
2022/07/21 03:37:41;;;;;;;9.70;7.97;;;;;;;24.15;64.05;97829.81;5109537;27;20215;-71
2022/07/21 03:40:07;;;;;;;9.23;8.10;;;;;;;24.19;63.65;97832.91;5097112;27;20445;-71
2022/07/21 03:42:32;;;;;;;10.23;8.33;;;;;;;24.23;63.97;97834.06;5102216;28;20431;-70
2022/07/21 03:44:58;;;;;;;7.50;6.90;;;;;;;24.30;64.09;97848.19;5099374;27;20829;-72
2022/07/21 03:47:23;;;;;;;9.37;8.47;;;;;;;24.32;64.05;97840.72;5116059;27;20188;-71
2022/07/21 03:49:49;;;;;;;9.17;8.30;;;;;;;24.32;63.43;97843.41;5101030;27;20189;-70
2022/07/21 03:52:14;;;;;;;12.10;9.27;;;;;;;24.30;64.08;97837.47;5115494;27;20608;-71
2022/07/21 03:54:40;;;;;;;8.60;7.80;;;;;;;24.32;64.48;97838.06;5105435;27;20751;-71
2022/07/21 03:57:05;;;;;;;13.33;7.80;;;;;;;24.32;64.68;97840.72;5113102;27;20206;-70
2022/07/21 03:59:30;;;;;;;8.63;7.83;;;;;;;24.37;64.54;97845.44;5108474;27;20173;-70
2022/07/21 04:01:56;;;;;;;10.23;8.30;;;;;;;24.36;64.87;97852.63;5111316;27;20245;-70
2022/07/21 04:04:21;;;;;;;12.83;8.57;;;;;;;24.31;64.67;97867.75;5110821;27;20576;-71
2022/07/21 04:06:47;;;;;;;11.50;9.00;;;;;;;24.31;64.90;97867.75;5117618;27;20190;-70
2022/07/21 04:09:12;;;;;;;16.90;9.30;;;;;;;24.27;65.22;97863.88;5126501;27;20304;-71
2022/07/21 04:11:38;;;;;;;10.33;9.00;;;;;;;24.32;65.07;97858.66;5122446;27;20284;-71
2022/07/21 04:14:03;;;;;;;9.87;8.77;;;;;;;24.36;64.65;97862.53;5123486;27;20212;-71
2022/07/21 04:16:28;;;;;;;9.53;8.70;;;;;;;24.39;64.89;97864.75;5120929;27;20223;-70
2022/07/21 04:18:54;;;;;;;16.10;8.90;;;;;;;24.42;64.67;97866.19;5121175;27;20542;-71
2022/07/21 04:21:19;;;;;;;10.43;9.07;;;;;;;24.34;64.80;97860.06;5123759;27;20247;-70
2022/07/21 04:23:45;;;;;;;9.73;8.40;;;;;;;24.30;64.84;97864.25;5108170;27;20201;-71
2022/07/21 04:26:10;;;;;;;10.03;8.60;;;;;;;24.32;64.86;97870.19;5125922;27;20212;-72
2022/07/21 04:28:36;;;;;;;9.17;8.17;;;;;;;24.31;64.56;97871.25;5119780;27;20718;-70
2022/07/21 04:31:01;;;;;;;9.80;8.80;;;;;;;24.30;64.54;97872.28;5128276;27;20168;-71
2022/07/21 04:33:27;;;;;;;8.90;8.10;;;;;;;24.30;64.51;97874.16;5123123;27;20219;-71
2022/07/21 04:35:52;;;;;;;11.07;8.80;;;;;;;24.29;64.43;97880.53;5111804;28;20178;-70
2022/07/21 04:38:18;;;;;;;11.73;8.00;;;;;;;24.20;64.73;97882.69;5099722;28;20264;-69
2022/07/21 04:40:43;;;;;;;8.37;7.67;;;;;;;24.22;64.75;97889.47;5105144;27;20173;-69
2022/07/21 04:43:09;;;;;;;8.73;7.97;;;;;;;24.27;65.29;97885.28;5118112;27;20522;-70
2022/07/21 04:45:34;;;;;;;10.30;8.70;;;;;;;24.33;64.96;97884.41;5110487;27;20169;-70
2022/07/21 04:48:00;;;;;;;13.23;8.43;;;;;;;24.24;63.98;97883.88;5110518;27;20173;-70
2022/07/21 04:50:27;;;;;;;9.70;7.87;;;;;;;24.22;64.28;97877.94;5101530;27;20185;-69
2022/07/21 04:52:53;;;;;;;9.10;8.17;;;;;;;24.24;63.85;97881.22;5122069;27;20176;-69
2022/07/21 04:55:19;;;;;;;11.30;7.50;;;;;;;24.30;63.67;97880.34;5116219;27;21005;-70
2022/07/21 04:57:47;;;;;;;9.40;8.50;;;;;;;24.31;63.89;97881.97;5101500;28;20965;-69
2022/07/21 05:00:16;;;;;;;9.30;8.40;;;;;;;24.35;64.18;97888.50;5103466;28;20418;-71
2022/07/21 05:02:41;;;;;;;8.73;7.87;;;;;;;24.41;64.76;97892.13;5112593;27;20418;-69
2022/07/21 05:05:07;;;;;;;9.20;8.10;;;;;;;24.46;64.94;97883.41;5093876;28;20450;-72
2022/07/21 05:07:33;;;;;;;9.97;8.93;;;;;;;24.42;64.55;97879.56;5105082;27;20180;-70
2022/07/21 05:09:58;;;;;;;10.20;9.20;;;;;;;24.37;65.34;97877.56;5105930;28;20435;-70
2022/07/21 05:12:25;;;;;;;10.63;8.03;;;;;;;24.39;65.66;97878.97;5107368;28;20184;-72
2022/07/21 05:14:50;;;;;;;9.50;7.90;;;;;;;24.46;65.69;97884.25;5107769;28;20228;-70
2022/07/21 05:17:16;;;;;;;9.90;8.00;;;;;;;24.51;65.37;97892.41;5109284;28;20491;-68
2022/07/21 05:19:43;;;;;;;13.90;8.40;;;;;;;24.56;65.14;97891.75;5104032;28;20182;-70
2022/07/21 05:22:09;;;;;;;9.83;7.57;;;;;;;24.61;65.07;97897.22;5102315;28;20216;-69
2022/07/21 05:24:34;;;;;;;9.90;8.90;;;;;;;24.61;64.36;97889.19;5107622;28;20515;-70
2022/07/21 05:27:00;;;;;;;9.83;8.70;;;;;;;24.65;64.84;97890.38;5104677;28;20942;-69
2022/07/21 05:29:25;;;;;;;10.10;8.37;;;;;;;24.73;64.81;97891.13;5104068;28;20188;-68
2022/07/21 05:31:51;;;;;;;10.67;8.60;;;;;;;24.72;64.25;97895.69;5102730;28;20185;-69
2022/07/21 05:34:16;;;;;;;9.57;8.60;;;;;;;24.75;64.12;97899.78;5108532;28;20212;-70
2022/07/21 05:36:42;;;;;;;10.53;9.43;;;;;;;24.78;64.24;97888.59;5101392;28;20277;-69
2022/07/21 05:39:07;;;;;;;12.80;8.37;;;;;;;24.82;63.84;97893.28;5108738;27;20338;-69
2022/07/21 05:41:33;;;;;;;15.90;9.33;;;;;;;24.88;63.60;97893.41;5094620;27;20182;-69
2022/07/21 05:43:58;;;;;;;10.73;8.77;;;;;;;24.96;63.60;97901.94;5101993;28;20205;-69
2022/07/21 05:46:23;;;;;;;10.07;8.80;;;;;;;25.04;64.08;97906.16;5107801;28;20181;-72
2022/07/21 05:48:49;;;;;;;11.03;8.87;;;;;;;24.93;62.36;97905.09;5101841;28;20185;-71
2022/07/21 05:51:14;;;;;;;9.57;8.43;;;;;;;25.00;63.27;97911.16;5107314;28;20264;-68
2022/07/21 05:53:40;;;;;;;12.07;8.47;;;;;;;25.08;63.64;97917.22;5103121;28;20351;-71
2022/07/21 05:56:06;;;;;;;10.60;9.50;;;;;;;25.23;63.66;97914.94;5102539;28;20600;-72
2022/07/21 05:58:33;;;;;;;11.67;8.20;;;;;;;25.38;63.70;97932.47;5087066;28;20703;-72
2022/07/21 06:01:08;;;;;;;10.80;9.70;;;;;;;25.53;62.96;97924.00;5089416;28;20477;-70
2022/07/21 06:03:44;;;;;;;11.23;10.17;;;;;;;25.52;60.52;97925.06;5099713;28;20438;-70
2022/07/21 06:06:12;;;;;;;9.43;8.60;;;;;;;25.65;61.33;97930.19;5110660;28;20434;-69
2022/07/21 06:08:38;;;;;;;9.00;7.70;;;;;;;25.82;61.66;97933.03;5110309;28;20511;-71
2022/07/21 06:11:04;;;;;;;9.27;8.37;;;;;;;25.89;59.36;97933.72;5099705;28;20441;-71
2022/07/21 06:13:30;;;;;;;10.43;9.43;;;;;;;26.04;59.17;97935.91;5106011;28;20949;-69
2022/07/21 06:15:55;;;;;;;8.40;7.60;;;;;;;26.19;59.19;97934.63;5104965;28;20531;-70
2022/07/21 06:18:20;;;;;;;10.03;8.57;;;;;;;26.25;57.11;97935.56;5107465;28;20316;-71
2022/07/21 06:21:17;;;;;;;8.80;7.90;;;;;;;26.30;56.40;97939.16;5105105;27;20192;-70
2022/07/21 06:23:43;;;;;;;8.90;8.00;;;;;;;26.39;55.40;97930.75;5105563;28;20435;-69
2022/07/21 06:26:08;;;;;;;10.00;6.93;;;;;;;26.50;55.45;97937.97;5099587;28;20481;-69
2022/07/21 06:28:34;;;;;;;9.60;8.10;;;;;;;26.54;54.28;97936.41;5105011;28;20247;-69
2022/07/21 06:30:59;;;;;;;8.40;7.60;;;;;;;26.63;54.57;97942.25;5097196;28;20186;-71
2022/07/21 06:33:25;;;;;;;8.50;7.70;;;;;;;26.79;54.63;97943.38;5100815;28;20305;-70
2022/07/21 06:35:50;;;;;;;11.07;7.93;;;;;;;26.93;54.53;97941.25;5104422;28;20265;-70
2022/07/21 06:38:16;;;;;;;8.30;7.50;;;;;;;27.03;53.67;97946.00;5105241;28;20683;-70
2022/07/21 06:40:41;;;;;;;8.07;7.20;;;;;;;27.14;52.65;97943.22;5104618;28;20603;-69
2022/07/21 06:43:07;;;;;;;8.30;7.40;;;;;;;27.27;51.80;97946.66;5082267;28;20578;-70
2022/07/21 06:45:32;;;;;;;9.90;8.40;;;;;;;27.33;51.82;97945.72;5095834;28;20173;-70
2022/07/21 06:48:05;;;;;;;10.90;7.87;;;;;;;27.42;51.49;97954.19;5094497;28;20567;-70
2022/07/21 06:50:31;;;;;;;8.80;8.00;;;;;;;27.45;51.32;97956.41;5090276;28;20656;-70
2022/07/21 06:52:57;;;;;;;11.60;8.10;;;;;;;27.50;50.46;97944.91;5095692;28;20457;-69
2022/07/21 06:55:22;;;;;;;7.30;6.60;;;;;;;27.50;49.95;97950.31;5106595;28;20231;-70
2022/07/21 06:57:48;;;;;;;7.70;7.00;;;;;;;27.43;49.96;97945.88;5100487;28;20209;-69
2022/07/21 07:00:14;;;;;;;8.20;7.40;;;;;;;27.49;50.23;97957.56;5104538;28;20198;-70
2022/07/21 07:02:39;;;;;;;8.10;7.40;;;;;;;27.59;50.16;97941.59;5109162;28;20177;-69
2022/07/21 07:05:05;;;;;;;10.37;6.87;;;;;;;27.71;50.17;97946.91;5107723;28;20524;-68
2022/07/21 07:07:31;;;;;;;7.33;6.63;;;;;;;27.86;50.15;97948.16;5102558;28;20226;-70
2022/07/21 07:09:56;;;;;;;8.00;7.20;;;;;;;27.93;49.54;97948.81;5109931;28;20505;-69
2022/07/21 07:12:22;;;;;;;7.87;7.07;;;;;;;28.07;48.92;97948.47;5108061;28;20189;-71
2022/07/21 07:14:47;;;;;;;8.90;7.17;;;;;;;28.20;48.78;97959.72;5101226;28;20258;-69
2022/07/21 07:17:20;;;;;;;7.70;6.90;;;;;;;28.27;48.15;97954.16;5103163;28;20553;-69
2022/07/21 07:19:46;;;;;;;7.37;6.50;;;;;;;28.42;48.33;97955.41;5105061;28;20197;-70
2022/07/21 07:22:12;;;;;;;10.80;6.80;;;;;;;28.51;47.91;97954.75;5088809;28;20475;-69
2022/07/21 07:24:38;;;;;;;9.33;6.70;;;;;;;28.53;46.99;97956.38;5104582;28;20447;-69
2022/07/21 07:27:03;;;;;;;7.70;6.90;;;;;;;28.36;45.96;97960.72;5099271;28;20181;-70
2022/07/21 07:29:30;;;;;;;9.93;6.97;;;;;;;28.45;46.62;97957.63;5106818;28;20580;-69
2022/07/21 07:31:56;;;;;;;8.13;7.27;;;;;;;28.56;46.50;97955.84;5105170;28;20202;-70
2022/07/21 07:34:21;;;;;;;8.10;6.40;;;;;;;28.69;46.58;97954.66;5104215;28;20462;-71
2022/07/21 07:36:47;;;;;;;7.93;7.17;;;;;;;28.73;46.34;97963.91;5104345;27;20212;-70
2022/07/21 07:39:15;;;;;;;7.57;6.87;;;;;;;28.66;46.09;97962.19;5075433;28;20185;-69
2022/07/21 07:41:41;;;;;;;7.70;6.90;;;;;;;28.56;46.35;97956.69;5108319;28;20178;-70
2022/07/21 07:44:06;;;;;;;7.93;7.13;;;;;;;28.50;45.41;97960.38;5107594;28;20453;-71
2022/07/21 07:46:31;;;;;;;7.30;6.60;;;;;;;28.60;45.96;97963.22;5111917;28;20519;-71
2022/07/21 07:48:57;;;;;;;7.10;6.40;;;;;;;28.58;44.15;97959.13;5101919;28;20192;-70
2022/07/21 07:51:22;;;;;;;10.43;7.27;;;;;;;28.60;44.46;97956.97;5110118;27;20192;-70
2022/07/21 07:53:48;;;;;;;7.27;6.37;;;;;;;28.70;43.84;97956.28;5107286;27;20339;-71
2022/07/21 07:56:13;;;;;;;7.07;6.37;;;;;;;28.72;44.69;97962.25;5110712;28;20574;-70
2022/07/21 07:58:39;;;;;;;7.23;6.20;;;;;;;28.85;44.19;97961.91;5103177;28;20204;-71
2022/07/21 08:01:05;;;;;;;15.27;6.40;;;;;;;28.85;43.90;97955.66;5103874;28;20181;-70
2022/07/21 08:03:30;;;;;;;9.10;7.00;;;;;;;28.79;43.75;97954.81;5103782;28;20266;-71
2022/07/21 08:05:59;;;;;;;6.97;6.27;;;;;;;28.52;44.18;97966.31;5099249;28;20887;-69
2022/07/21 08:08:24;;;;;;;7.90;6.03;;;;;;;28.42;43.88;97963.50;5104181;28;20311;-70
2022/07/21 08:10:50;;;;;;;8.83;6.00;;;;;;;28.31;42.96;97960.69;5104347;28;20889;-69
2022/07/21 08:13:17;;;;;;;6.73;5.73;;;;;;;28.13;43.15;97966.34;5104190;28;20570;-69
2022/07/21 08:15:44;;;;;;;7.77;6.30;;;;;;;27.93;43.58;97977.63;5101432;28;20177;-69
2022/07/21 08:18:10;;;;;;;7.43;6.63;;;;;;;27.93;44.17;97970.38;5095832;28;20602;-72
2022/07/21 08:20:36;;;;;;;7.27;6.10;;;;;;;28.10;44.10;97969.56;5100873;28;20521;-69
2022/07/21 08:23:02;;;;;;;7.67;6.37;;;;;;;28.39;44.79;97964.00;5103078;28;20601;-71
2022/07/21 08:25:28;;;;;;;6.63;5.73;;;;;;;28.61;44.99;97964.81;5091722;28;20420;-71
2022/07/21 08:27:53;;;;;;;6.70;5.70;;;;;;;28.76;44.05;97960.69;5106210;28;20477;-68
2022/07/21 08:30:19;;;;;;;6.30;5.77;;;;;;;28.71;41.43;97963.31;5103563;27;20556;-69
2022/07/21 08:32:44;;;;;;;6.47;5.87;;;;;;;28.47;42.44;97958.19;5099470;28;20191;-69
2022/07/21 08:35:10;;;;;;;6.10;5.60;;;;;;;28.32;43.47;97962.31;5108514;28;20331;-69
2022/07/21 08:37:36;;;;;;;6.73;5.60;;;;;;;28.34;43.53;97954.81;5105171;28;20306;-69
2022/07/21 08:40:07;;;;;;;10.40;6.63;;;;;;;28.36;43.85;97963.44;5103281;28;20276;-70
2022/07/21 08:42:33;;;;;;;6.50;5.90;;;;;;;28.35;43.28;97969.06;5105625;28;20423;-72
2022/07/21 08:44:59;;;;;;;8.17;5.40;;;;;;;28.38;42.84;97965.91;5110358;28;20628;-68
2022/07/21 08:47:24;;;;;;;7.30;5.50;;;;;;;28.42;42.77;97960.81;5095096;28;20181;-70
2022/07/21 08:49:50;;;;;;;7.37;5.93;;;;;;;28.42;43.46;97967.00;5098628;28;20192;-70
2022/07/21 08:52:15;;;;;;;9.03;5.77;;;;;;;28.43;43.18;97965.13;5097888;28;20201;-72
2022/07/21 08:54:41;;;;;;;9.60;6.20;;;;;;;28.48;43.32;97954.44;5101971;28;20279;-70
2022/07/21 08:57:06;;;;;;;6.10;5.57;;;;;;;28.47;42.74;97960.88;5102360;28;20193;-70
2022/07/21 08:59:32;;;;;;;6.30;5.50;;;;;;;28.56;42.27;97953.97;5100668;28;20180;-70
2022/07/21 09:01:58;;;;;;;6.20;5.60;;;;;;;28.64;41.65;97958.13;5088203;28;20272;-69
2022/07/21 09:04:26;;;;;;;6.03;5.23;;;;;;;28.95;41.41;97953.91;5097844;28;20205;-71
2022/07/21 09:07:03;;;;;;;5.80;5.30;;;;;;;29.00;40.38;97945.06;5081189;28;20200;-69
2022/07/21 09:09:29;;;;;;;6.00;5.50;;;;;;;29.23;41.39;97952.03;5100156;28;20509;-71
2022/07/21 09:11:56;;;;;;;5.20;4.80;;;;;;;29.38;41.44;97948.66;5107408;28;20433;-72
2022/07/21 09:14:28;;;;;;;6.63;5.87;;;;;;;29.48;40.62;97950.66;5104043;28;20476;-71
2022/07/21 09:16:59;;;;;;;6.03;5.40;;;;;;;29.53;39.78;97952.56;5101386;28;20492;-70
2022/07/21 09:19:28;;;;;;;7.10;5.17;;;;;;;29.64;39.12;97954.28;5097466;27;20430;-70
2022/07/21 09:21:55;;;;;;;7.23;6.10;;;;;;;29.83;39.89;97951.97;5102927;28;20940;-70
2022/07/21 09:24:29;;;;;;;5.97;5.43;;;;;;;29.73;39.30;97958.13;5099644;28;21013;-68
2022/07/21 09:27:18;;;;;;;8.20;5.87;;;;;;;29.63;38.84;97959.91;5096875;28;20816;-69
2022/07/21 09:29:43;;;;;;;6.00;5.40;;;;;;;29.66;39.12;97946.72;5110961;27;20453;-70
2022/07/21 09:32:36;;;;;;;5.60;5.10;;;;;;;29.99;39.34;97952.13;5103698;27;20464;-69
2022/07/21 09:35:01;;;;;;;5.93;5.33;;;;;;;30.33;38.80;97936.31;5107128;28;21471;-69
2022/07/21 09:37:27;;;;;;;6.87;5.77;;;;;;;30.47;37.78;97938.53;5096380;28;20483;-69
2022/07/21 09:39:54;;;;;;;5.73;5.23;;;;;;;30.75;37.52;97940.00;5100146;28;20198;-68
2022/07/21 09:42:26;;;;;;;6.47;5.87;;;;;;;30.91;36.46;97940.06;5104265;28;20621;-68
2022/07/21 09:45:00;;;;;;;7.20;5.17;;;;;;;31.00;35.82;97945.75;5102308;28;20478;-68
2022/07/21 09:47:28;;;;;;;6.47;5.30;;;;;;;30.71;36.52;97938.09;5097895;28;20424;-69
2022/07/21 09:49:54;;;;;;;5.60;5.20;;;;;;;30.62;36.62;97948.66;5096805;28;20957;-69
2022/07/21 09:52:29;;;;;;;5.33;4.93;;;;;;;30.77;36.53;97937.84;5091897;28;20456;-69
2022/07/21 09:54:57;;;;;;;4.97;4.47;;;;;;;31.05;36.27;97943.06;5094421;28;20819;-68
2022/07/21 09:57:22;;;;;;;7.97;6.40;;;;;;;31.28;36.24;97938.25;5101525;28;20811;-69
2022/07/21 09:59:49;;;;;;;6.50;5.57;;;;;;;31.49;34.95;97929.03;5097193;28;20415;-69
2022/07/21 10:02:25;;;;;;;5.80;5.00;;;;;;;31.73;34.53;97927.69;5096041;28;20185;-69
2022/07/21 10:05:03;;;;;;;4.50;4.10;;;;;;;31.67;33.95;97938.50;5097721;28;20434;-68
2022/07/21 10:07:29;;;;;;;5.20;3.90;;;;;;;31.36;33.26;97935.00;5098210;28;20426;-70
2022/07/21 10:09:55;;;;;;;5.73;5.23;;;;;;;31.77;33.67;97940.41;5094349;28;20454;-70
2022/07/21 10:12:22;;;;;;;4.87;4.40;;;;;;;31.94;32.48;97936.59;5098115;28;20432;-69
2022/07/21 10:14:48;;;;;;;6.53;3.70;;;;;;;31.94;31.48;97934.69;5102565;28;20439;-68
2022/07/21 10:17:15;;;;;;;4.63;3.80;;;;;;;32.23;31.33;97928.66;5082918;28;20824;-69
2022/07/21 10:20:05;;;;;;;3.80;3.50;;;;;;;32.42;30.47;97909.06;5093404;28;20177;-69
2022/07/21 10:22:42;;;;;;;4.43;3.60;;;;;;;32.49;31.15;97915.03;5093700;28;20410;-68
2022/07/21 10:25:08;;;;;;;3.63;3.33;;;;;;;32.51;30.56;97899.28;5102403;28;20942;-71
2022/07/21 10:27:33;;;;;;;5.60;3.97;;;;;;;32.78;30.95;97917.00;5075873;28;20419;-70
2022/07/21 10:30:01;;;;;;;4.17;3.17;;;;;;;32.97;30.12;97908.25;5105960;28;20188;-68
2022/07/21 10:32:33;;;;;;;5.70;2.80;;;;;;;33.11;30.69;97902.97;5108625;28;20242;-68
2022/07/21 10:35:00;;;;;;;5.63;4.53;;;;;;;33.35;29.97;97897.69;5101793;28;20442;-69
2022/07/21 10:37:41;;;;;;;3.70;3.40;;;;;;;33.52;27.17;97902.69;5105554;28;21061;-69
2022/07/21 10:40:27;;;;;;;3.50;2.93;;;;;;;33.37;27.74;97903.63;5111000;28;21180;-68
2022/07/21 10:42:58;;;;;;;4.23;3.83;;;;;;;33.47;27.00;97906.25;5108385;28;20849;-68
2022/07/21 10:45:38;;;;;;;6.20;3.37;;;;;;;33.65;27.57;97906.63;5105337;27;21134;-68
2022/07/21 10:48:07;;;;;;;3.30;3.03;;;;;;;33.82;28.07;97901.56;5104239;28;20428;-69
2022/07/21 10:50:38;;;;;;;5.43;3.43;;;;;;;33.78;28.15;97897.78;5082764;28;20434;-68
2022/07/21 10:53:05;;;;;;;4.10;3.20;;;;;;;33.07;28.40;97891.88;5103236;28;20430;-68
2022/07/21 10:55:33;;;;;;;3.77;3.43;;;;;;;32.66;28.63;97898.38;5104642;27;20426;-68
2022/07/21 10:58:23;;;;;;;4.20;3.80;;;;;;;32.65;29.42;97901.34;5088128;28;21017;-68
2022/07/21 11:00:56;;;;;;;3.20;2.90;;;;;;;32.93;29.04;97889.81;5103702;28;20420;-67
2022/07/21 11:03:23;;;;;;;3.50;3.20;;;;;;;32.93;27.81;97892.53;5109695;28;20473;-68
2022/07/21 11:06:22;;;;;;;3.67;3.30;;;;;;;32.99;27.90;97890.59;5102824;28;20895;-67
2022/07/21 11:08:52;;;;;;;3.33;3.03;;;;;;;33.08;28.20;97888.09;5084496;28;20413;-67
2022/07/21 11:11:18;;;;;;;3.20;3.00;;;;;;;33.32;28.48;97881.91;5105016;28;20415;-67
2022/07/21 11:14:08;;;;;;;3.90;3.20;;;;;;;33.22;27.88;97882.81;5106827;28;20496;-68
2022/07/21 11:16:56;;;;;;;3.40;3.10;;;;;;;33.66;27.17;97889.22;5061637;28;20193;-68
2022/07/21 11:19:46;;;;;;;5.13;3.33;;;;;;;33.48;26.99;97888.88;5099552;28;20979;-69
2022/07/21 11:22:22;;;;;;;3.30;3.10;;;;;;;33.52;27.65;97887.19;5086961;28;20915;-68
2022/07/21 11:24:51;;;;;;;4.73;3.33;;;;;;;33.50;27.66;97881.25;5105195;27;20807;-69
2022/07/21 11:27:22;;;;;;;4.07;3.20;;;;;;;33.46;26.74;97873.97;5105082;28;20419;-69
2022/07/21 11:29:49;;;;;;;6.53;3.70;;;;;;;33.76;26.78;97875.56;5103796;28;20423;-69
2022/07/21 11:32:18;;;;;;;5.53;3.23;;;;;;;33.96;26.42;97865.56;5106085;28;20435;-68